Terminal Aerodrome Forecast
Issued by NWS Wilmington, OH

Home | Current Version | Previous Version | Text Only | Print | Product List | Glossary On
Versions: 1 2 3 4 5 6 7 8 9 10 11 12 13 14 15 16 17 18 19 20 21
000
FTUS41 KILN 221121
TAFCVG
TAF
KCVG 221121Z 2212/2318 18007KT P6SM SCT250
     FM221400 17011KT P6SM FEW120 BKN250
     FM230000 15005KT P6SM BKN130
     FM230900 15007KT P6SM VCSH OVC050
     FM231300 15009KT 5SM SHRA OVC025=

USA.gov is the U.S. government's official web portal to all federal, state and local government web resources and services.